createdAt,value
2023-03-30T00:00:18.196Z,5.88
2023-03-30T00:02:49.518Z,6.80
2023-03-30T00:05:19.138Z,6.30
2023-03-30T00:07:48.043Z,5.80
2023-03-30T00:10:19.319Z,5.40
2023-03-30T00:12:48.387Z,5.57
2023-03-30T00:15:17.971Z,5.43
2023-03-30T00:17:46.562Z,5.80
2023-03-30T00:20:15.694Z,5.85
2023-03-30T00:22:45.055Z,5.60
2023-03-30T00:25:14.727Z,5.40
2023-03-30T00:27:44.664Z,5.70
2023-03-30T00:30:15.393Z,5.70
2023-03-30T00:32:44.020Z,5.00
2023-03-30T00:35:13.483Z,5.75
2023-03-30T00:37:45.846Z,5.00
2023-03-30T00:40:20.206Z,5.35
2023-03-30T00:42:50.447Z,5.43
2023-03-30T00:45:24.400Z,4.90
2023-03-30T00:48:03.155Z,5.55
2023-03-30T00:50:36.117Z,4.70
2023-03-30T00:53:10.042Z,4.95
2023-03-30T00:55:40.148Z,4.55
2023-03-30T00:58:10.964Z,5.13
2023-03-30T01:00:40.382Z,4.93
2023-03-30T01:03:14.269Z,5.28
2023-03-30T01:05:42.886Z,4.90
2023-03-30T01:08:14.094Z,4.63
2023-03-30T01:10:42.836Z,4.60
2023-03-30T01:13:12.973Z,4.60
2023-03-30T01:15:48.076Z,4.75
2023-03-30T01:18:33.322Z,4.57
2023-03-30T01:21:49.426Z,4.70
2023-03-30T01:24:49.494Z,4.47
2023-03-30T01:27:39.467Z,4.60
2023-03-30T01:30:33.908Z,4.57
2023-03-30T01:34:14.689Z,3.88
2023-03-30T01:37:21.697Z,4.47
2023-03-30T01:39:56.833Z,4.53
2023-03-30T01:42:30.117Z,3.90
2023-03-30T01:45:02.892Z,4.18
2023-03-30T01:47:35.853Z,3.85
2023-03-30T01:50:08.782Z,4.00
2023-03-30T01:52:41.324Z,4.07
2023-03-30T01:55:14.984Z,3.85
2023-03-30T01:57:46.923Z,4.30
2023-03-30T02:00:18.028Z,3.63
2023-03-30T02:02:49.565Z,3.42
2023-03-30T02:05:18.625Z,4.03
2023-03-30T02:07:48.020Z,4.30
2023-03-30T02:10:17.878Z,3.70
2023-03-30T02:12:46.759Z,3.53
2023-03-30T02:15:15.447Z,3.53
2023-03-30T02:17:46.057Z,3.90
2023-03-30T02:20:16.524Z,4.53
2023-03-30T02:22:45.157Z,3.83
2023-03-30T02:25:14.407Z,3.78
2023-03-30T02:27:44.311Z,3.83
2023-03-30T02:30:14.079Z,4.22
2023-03-30T02:32:44.344Z,4.15
2023-03-30T02:35:25.782Z,4.32
2023-03-30T02:38:15.283Z,3.80
2023-03-30T02:40:48.025Z,4.00
2023-03-30T02:43:45.031Z,3.80
2023-03-30T02:46:21.703Z,4.00
2023-03-30T02:48:58.027Z,3.58
2023-03-30T02:51:40.113Z,3.58
2023-03-30T02:54:16.432Z,3.58
2023-03-30T02:56:48.575Z,3.45
2023-03-30T02:59:19.686Z,3.83
2023-03-30T03:01:51.103Z,3.88
2023-03-30T03:04:22.164Z,3.53
2023-03-30T03:06:53.056Z,3.55
2023-03-30T03:09:21.245Z,3.85
2023-03-30T03:11:49.665Z,3.88
2023-03-30T03:14:19.476Z,3.58
2023-03-30T03:16:48.012Z,3.63
2023-03-30T03:19:17.093Z,3.75
2023-03-30T03:21:45.663Z,3.60
2023-03-30T03:24:17.394Z,3.40
2023-03-30T03:26:46.123Z,3.42
2023-03-30T03:29:14.710Z,3.50
2023-03-30T03:31:44.599Z,3.53
2023-03-30T03:34:13.076Z,3.47
2023-03-30T03:36:43.809Z,3.45
2023-03-30T03:39:12.691Z,3.53
2023-03-30T03:41:41.198Z,3.25
2023-03-30T03:44:09.603Z,3.63
2023-03-30T03:46:38.095Z,3.42
2023-03-30T03:49:08.023Z,3.60
2023-03-30T03:51:37.062Z,3.38
2023-03-30T03:54:05.750Z,3.67
2023-03-30T03:56:34.432Z,2.95
2023-03-30T03:59:03.608Z,3.05
2023-03-30T04:01:32.162Z,3.50
2023-03-30T04:04:00.588Z,2.92
2023-03-30T04:06:30.488Z,3.60
2023-03-30T04:08:58.973Z,3.40
2023-03-30T04:11:27.731Z,3.40
2023-03-30T04:13:56.240Z,3.15
2023-03-30T04:16:24.718Z,3.20
2023-03-30T04:18:53.318Z,3.20
2023-03-30T04:21:23.017Z,3.47
2023-03-30T04:23:53.241Z,3.22
2023-03-30T04:26:21.929Z,3.58
2023-03-30T04:28:53.896Z,3.13
2023-03-30T04:31:22.917Z,3.15
2023-03-30T04:33:54.781Z,3.45
2023-03-30T04:36:23.380Z,3.10
2023-03-30T04:38:59.831Z,3.40
2023-03-30T04:41:33.603Z,3.30
2023-03-30T04:44:03.670Z,3.10
2023-03-30T04:46:32.268Z,3.30
2023-03-30T04:49:00.876Z,3.58
2023-03-30T04:51:29.566Z,3.75
2023-03-30T04:53:59.431Z,3.35
2023-03-30T04:56:27.954Z,3.05
2023-03-30T04:58:56.494Z,3.60
2023-03-30T05:01:25.422Z,3.10
2023-03-30T05:03:53.986Z,3.42
2023-03-30T05:06:23.246Z,3.88
2023-03-30T05:08:51.843Z,3.08
2023-03-30T05:11:21.776Z,3.10
2023-03-30T05:13:52.599Z,3.45
2023-03-30T05:16:22.060Z,3.28
2023-03-30T05:18:51.826Z,3.08
2023-03-30T05:21:20.694Z,3.40
2023-03-30T05:23:49.241Z,3.17
2023-03-30T05:26:17.732Z,3.50
2023-03-30T05:28:48.296Z,3.10
2023-03-30T05:31:17.385Z,3.15
2023-03-30T05:33:46.797Z,3.13
2023-03-30T05:36:15.970Z,3.35
2023-03-30T05:38:45.396Z,3.00
2023-03-30T05:41:14.980Z,2.90
2023-03-30T05:43:43.863Z,3.55
2023-03-30T05:46:14.193Z,3.20
2023-03-30T05:48:43.346Z,3.15
2023-03-30T05:51:12.053Z,3.28
2023-03-30T05:53:40.981Z,3.20
2023-03-30T05:56:11.062Z,3.08
2023-03-30T05:58:39.803Z,3.20
2023-03-30T06:01:09.776Z,2.80
2023-03-30T06:03:40.520Z,3.13
2023-03-30T06:06:11.089Z,2.88
2023-03-30T06:08:40.384Z,3.03
2023-03-30T06:11:09.788Z,2.63
2023-03-30T06:13:38.490Z,3.08
2023-03-30T06:16:08.202Z,3.17
2023-03-30T06:18:37.124Z,3.08
2023-03-30T06:21:08.880Z,2.75
2023-03-30T06:23:38.286Z,2.88
2023-03-30T06:26:08.989Z,3.72
2023-03-30T06:28:38.374Z,4.80
2023-03-30T06:31:10.938Z,4.40
2023-03-30T06:33:41.783Z,5.10
2023-03-30T06:36:14.588Z,4.40
2023-03-30T06:38:43.877Z,5.20
2023-03-30T06:41:12.985Z,4.47
2023-03-30T06:43:41.878Z,4.53
2023-03-30T06:46:11.535Z,4.65
2023-03-30T06:48:40.272Z,4.80
2023-03-30T06:51:09.537Z,5.35
2023-03-30T06:53:39.791Z,4.68
2023-03-30T06:56:10.203Z,4.95
2023-03-30T06:58:39.234Z,4.80
2023-03-30T07:01:12.224Z,4.68
2023-03-30T07:03:41.405Z,4.60
2023-03-30T07:06:11.027Z,4.68
2023-03-30T07:08:41.694Z,4.05
2023-03-30T07:11:10.334Z,4.53
2023-03-30T07:13:39.389Z,4.10
2023-03-30T07:16:09.186Z,4.38
2023-03-30T07:18:37.929Z,4.65
2023-03-30T07:21:07.790Z,4.40
2023-03-30T07:23:36.376Z,4.22
2023-03-30T07:26:06.891Z,3.97
2023-03-30T07:28:38.520Z,4.07
2023-03-30T07:31:08.006Z,4.00
2023-03-30T07:33:37.896Z,4.38
2023-03-30T07:36:08.712Z,4.07
2023-03-30T07:38:37.520Z,3.90
2023-03-30T07:41:10.795Z,3.92
2023-03-30T07:43:40.610Z,4.07
2023-03-30T07:46:09.742Z,4.28
2023-03-30T07:48:38.561Z,4.18
2023-03-30T07:51:08.499Z,3.90
2023-03-30T07:53:37.492Z,3.75
2023-03-30T07:56:06.912Z,3.80
2023-03-30T07:58:37.284Z,4.30
2023-03-30T08:01:06.583Z,3.95
2023-03-30T08:03:37.116Z,3.40
2023-03-30T08:06:06.699Z,3.35
2023-03-30T08:08:35.470Z,4.10
2023-03-30T08:11:04.551Z,3.67
2023-03-30T08:13:33.925Z,3.65
2023-03-30T08:16:03.919Z,3.50
2023-03-30T08:18:33.088Z,3.50
2023-03-30T08:21:01.971Z,3.92
2023-03-30T08:23:31.080Z,3.63
2023-03-30T08:26:00.088Z,3.25
2023-03-30T08:28:29.109Z,3.00
2023-03-30T08:30:58.199Z,3.70
2023-03-30T08:33:28.254Z,3.35
2023-03-30T08:35:57.278Z,3.63
2023-03-30T08:38:26.046Z,3.55
2023-03-30T08:40:55.121Z,3.33
2023-03-30T08:43:40.753Z,3.47
2023-03-30T08:46:10.742Z,2.95
2023-03-30T08:48:42.709Z,3.85
2023-03-30T08:51:20.246Z,3.20
2023-03-30T08:53:49.112Z,3.05
2023-03-30T08:56:19.790Z,3.13
2023-03-30T08:58:54.474Z,3.40
2023-03-30T09:01:25.277Z,3.33
2023-03-30T09:04:05.647Z,3.60
2023-03-30T09:06:46.271Z,3.53
2023-03-30T09:09:17.220Z,3.00
2023-03-30T09:11:46.421Z,3.35
2023-03-30T09:14:20.322Z,3.35
2023-03-30T09:16:53.910Z,3.25
2023-03-30T09:19:26.795Z,2.80
2023-03-30T09:21:56.036Z,3.40
2023-03-30T09:24:27.477Z,2.85
2023-03-30T09:27:00.104Z,3.10
2023-03-30T09:29:30.050Z,2.95
2023-03-30T09:32:06.173Z,2.92
2023-03-30T09:34:41.173Z,3.13
2023-03-30T09:37:13.128Z,2.60
2023-03-30T09:39:42.582Z,3.20
2023-03-30T09:42:21.456Z,3.60
2023-03-30T09:44:52.866Z,2.85
2023-03-30T09:47:26.561Z,3.10
2023-03-30T09:50:01.444Z,2.50
2023-03-30T09:52:32.270Z,3.17
2023-03-30T09:55:26.108Z,2.80
2023-03-30T09:57:57.009Z,3.38
2023-03-30T10:00:28.286Z,3.42
2023-03-30T10:02:58.648Z,2.75
2023-03-30T10:05:28.885Z,2.75
2023-03-30T10:07:58.963Z,2.72
2023-03-30T10:10:34.783Z,2.83
2023-03-30T10:13:09.824Z,2.42
2023-03-30T10:15:40.384Z,3.08
2023-03-30T10:18:25.875Z,2.80
2023-03-30T10:21:01.779Z,2.80
2023-03-30T10:23:33.449Z,2.88
2023-03-30T10:26:04.124Z,2.80
2023-03-30T10:28:36.123Z,2.90
2023-03-30T10:31:06.709Z,2.70
2023-03-30T10:33:41.717Z,2.40
2023-03-30T10:36:12.681Z,3.00
2023-03-30T10:38:41.985Z,2.88
2023-03-30T10:41:12.037Z,2.42
2023-03-30T10:43:41.245Z,2.92
2023-03-30T10:46:19.969Z,2.50
2023-03-30T10:49:11.883Z,2.55
2023-03-30T10:51:51.138Z,2.95
2023-03-30T10:54:23.107Z,2.90
2023-03-30T10:56:54.363Z,2.17
2023-03-30T10:59:52.749Z,2.92
2023-03-30T11:02:32.137Z,2.35
2023-03-30T11:05:03.420Z,2.90
2023-03-30T11:07:36.464Z,2.45
2023-03-30T11:10:08.147Z,2.50
2023-03-30T11:12:40.506Z,2.17
2023-03-30T11:15:12.406Z,2.60
2023-03-30T11:17:45.861Z,2.67
2023-03-30T11:20:23.725Z,2.60
2023-03-30T11:22:58.621Z,2.60
2023-03-30T11:25:29.577Z,2.30
2023-03-30T11:28:01.209Z,3.03
2023-03-30T11:30:31.212Z,2.67
2023-03-30T11:33:03.435Z,2.63
2023-03-30T11:35:36.329Z,2.65
2023-03-30T11:38:10.613Z,2.40
2023-03-30T11:40:43.655Z,2.60
2023-03-30T11:43:13.443Z,2.45
2023-03-30T11:45:53.399Z,2.15
2023-03-30T11:48:59.917Z,2.40
2023-03-30T11:51:44.827Z,2.10
2023-03-30T11:55:03.143Z,2.40
2023-03-30T11:57:38.194Z,2.10
2023-03-30T12:00:27.687Z,2.53
2023-03-30T12:03:03.112Z,2.22
2023-03-30T12:05:34.408Z,2.67
2023-03-30T12:08:12.374Z,2.08
2023-03-30T12:10:43.181Z,1.92
2023-03-30T12:13:13.755Z,2.35
2023-03-30T12:15:46.815Z,2.00
2023-03-30T12:18:26.038Z,2.42
2023-03-30T12:20:56.937Z,2.20
2023-03-30T12:23:35.675Z,2.10
2023-03-30T12:26:12.610Z,2.17
2023-03-30T12:29:15.291Z,2.17
2023-03-30T12:32:04.852Z,2.30
2023-03-30T12:34:34.585Z,2.38
2023-03-30T12:37:10.276Z,2.63
2023-03-30T12:39:45.073Z,2.50
2023-03-30T12:42:27.444Z,2.20
2023-03-30T12:45:12.639Z,2.55
2023-03-30T12:47:51.018Z,2.13
2023-03-30T12:50:34.747Z,2.65
2023-03-30T12:53:30.624Z,2.20
2023-03-30T12:56:05.032Z,2.22
2023-03-30T12:59:05.959Z,2.20
2023-03-30T13:01:55.629Z,2.35
2023-03-30T13:04:25.271Z,1.90
2023-03-30T13:06:54.672Z,2.10
2023-03-30T13:09:55.056Z,2.13
2023-03-30T13:12:49.477Z,2.38
2023-03-30T13:15:43.496Z,2.17
2023-03-30T13:18:36.086Z,2.05
2023-03-30T13:21:20.046Z,2.53
2023-03-30T13:24:05.914Z,2.25
2023-03-30T13:26:45.268Z,2.25
2023-03-30T13:29:15.417Z,2.40
2023-03-30T13:32:00.645Z,2.40
2023-03-30T13:35:03.168Z,2.30
2023-03-30T13:38:03.984Z,2.25
2023-03-30T13:40:40.229Z,2.30
2023-03-30T13:43:18.630Z,2.42
2023-03-30T13:45:51.239Z,2.28
2023-03-30T13:48:36.429Z,2.05
2023-03-30T13:51:05.093Z,2.40
2023-03-30T13:53:42.783Z,2.30
2023-03-30T13:56:11.363Z,2.15
2023-03-30T13:58:39.791Z,2.10
2023-03-30T14:01:10.709Z,1.95
2023-03-30T14:03:42.310Z,2.00
2023-03-30T14:06:17.693Z,2.50
2023-03-30T14:08:48.030Z,2.30
2023-03-30T14:11:18.854Z,2.25
2023-03-30T14:13:49.156Z,2.42
2023-03-30T14:16:21.422Z,2.25
2023-03-30T14:18:51.556Z,2.50
2023-03-30T14:21:22.052Z,2.08
2023-03-30T14:23:52.105Z,2.05
2023-03-30T14:26:24.187Z,2.30
2023-03-30T14:28:55.781Z,2.13
2023-03-30T14:31:27.277Z,2.13
2023-03-30T14:33:57.298Z,2.08
2023-03-30T14:36:25.889Z,2.17
2023-03-30T14:38:55.294Z,2.42
2023-03-30T14:41:24.724Z,2.33
2023-03-30T14:43:55.993Z,2.08
2023-03-30T14:46:25.394Z,2.05
2023-03-30T14:48:53.974Z,2.10
2023-03-30T14:51:28.188Z,2.20
2023-03-30T14:53:57.781Z,2.40
2023-03-30T14:56:26.731Z,2.15
2023-03-30T14:58:55.188Z,2.10
2023-03-30T15:01:31.422Z,2.17
2023-03-30T15:04:00.880Z,2.05
2023-03-30T15:06:30.976Z,2.00
2023-03-30T15:09:02.675Z,2.20
2023-03-30T15:11:31.529Z,2.63
2023-03-30T15:14:03.942Z,2.17
2023-03-30T15:16:34.310Z,2.50
2023-03-30T15:19:04.732Z,2.20
2023-03-30T15:21:36.888Z,2.45
2023-03-30T15:24:07.715Z,2.13
2023-03-30T15:26:46.350Z,2.10
2023-03-30T15:29:15.456Z,2.47
2023-03-30T15:31:44.972Z,2.40
2023-03-30T15:34:16.398Z,2.28
2023-03-30T15:36:48.970Z,2.05
2023-03-30T15:39:21.836Z,2.20
2023-03-30T15:41:51.343Z,2.45
2023-03-30T15:44:20.282Z,2.03
2023-03-30T15:46:49.759Z,2.13
2023-03-30T15:49:20.117Z,2.28
2023-03-30T15:51:51.923Z,2.25
2023-03-30T15:54:23.394Z,2.30
2023-03-30T15:56:56.555Z,1.95
2023-03-30T15:59:27.525Z,2.45
2023-03-30T16:01:56.932Z,2.10
2023-03-30T16:04:26.115Z,2.67
2023-03-30T16:06:56.167Z,2.38
2023-03-30T16:09:24.843Z,2.58
2023-03-30T16:11:53.345Z,2.80
2023-03-30T16:14:21.969Z,2.97
2023-03-30T16:16:50.528Z,2.42
2023-03-30T16:19:20.911Z,2.40
2023-03-30T16:21:49.784Z,2.22
2023-03-30T16:24:19.698Z,2.53
2023-03-30T16:26:48.269Z,2.72
2023-03-30T16:29:21.693Z,2.50
2023-03-30T16:31:50.375Z,2.40
2023-03-30T16:34:18.971Z,2.58
2023-03-30T16:36:48.206Z,2.28
2023-03-30T16:39:20.743Z,2.28
2023-03-30T16:41:49.659Z,2.55
2023-03-30T16:44:18.400Z,2.35
2023-03-30T16:46:47.241Z,2.50
2023-03-30T16:49:16.920Z,2.15
2023-03-30T16:51:45.821Z,2.53
2023-03-30T16:54:29.524Z,2.40
2023-03-30T16:57:00.920Z,2.67
2023-03-30T16:59:31.778Z,2.35
2023-03-30T17:02:00.488Z,2.40
2023-03-30T17:04:29.062Z,2.30
2023-03-30T17:06:58.110Z,2.55
2023-03-30T17:09:27.312Z,2.65
2023-03-30T17:11:55.794Z,2.70
2023-03-30T17:14:25.816Z,2.50
2023-03-30T17:16:54.313Z,2.90
2023-03-30T17:19:22.862Z,2.10
2023-03-30T17:21:51.881Z,3.00
2023-03-30T17:24:20.620Z,2.80
2023-03-30T17:26:49.227Z,2.65
2023-03-30T17:29:17.839Z,2.97
2023-03-30T17:31:47.702Z,3.03
2023-03-30T17:34:16.462Z,2.63
2023-03-30T17:36:44.976Z,2.95
2023-03-30T17:39:14.448Z,2.70
2023-03-30T17:41:43.087Z,3.30
2023-03-30T17:44:11.554Z,3.33
2023-03-30T17:46:42.996Z,3.03
2023-03-30T17:49:17.348Z,3.13
2023-03-30T17:51:46.115Z,3.80
2023-03-30T17:54:14.985Z,3.05
2023-03-30T17:56:43.594Z,3.53
2023-03-30T17:59:12.356Z,3.45
2023-03-30T18:01:41.199Z,3.58
2023-03-30T18:04:10.049Z,3.40
2023-03-30T18:06:40.807Z,3.60
2023-03-30T18:09:15.167Z,3.70
2023-03-30T18:11:44.111Z,3.20
2023-03-30T18:14:12.658Z,3.67
2023-03-30T18:16:43.660Z,3.50
2023-03-30T18:19:13.317Z,3.50
2023-03-30T18:21:43.326Z,3.80
2023-03-30T18:24:11.946Z,3.10
2023-03-30T18:26:43.002Z,3.50
2023-03-30T18:29:20.449Z,3.30
2023-03-30T18:31:49.324Z,3.28
2023-03-30T18:34:19.725Z,3.40
2023-03-30T18:36:49.566Z,3.70
2023-03-30T18:39:19.836Z,3.08
2023-03-30T18:41:48.593Z,3.80
2023-03-30T18:44:17.314Z,3.20
2023-03-30T18:46:46.483Z,3.72
2023-03-30T18:49:15.682Z,3.70
2023-03-30T18:51:44.318Z,3.53
2023-03-30T18:54:14.093Z,3.50
2023-03-30T18:56:43.424Z,3.17
2023-03-30T18:59:11.980Z,3.03
2023-03-30T19:01:40.585Z,3.25
2023-03-30T19:04:09.145Z,3.33
2023-03-30T19:06:38.325Z,3.65
2023-03-30T19:09:06.750Z,3.17
2023-03-30T19:11:36.598Z,3.42
2023-03-30T19:14:05.065Z,3.63
2023-03-30T19:16:33.626Z,3.50
2023-03-30T19:19:02.152Z,3.20
2023-03-30T19:21:30.946Z,3.40
2023-03-30T19:23:59.363Z,3.38
2023-03-30T19:26:28.140Z,3.92
2023-03-30T19:28:57.981Z,4.07
2023-03-30T19:31:26.541Z,3.25
2023-03-30T19:33:55.119Z,3.42
2023-03-30T19:36:25.316Z,3.45
2023-03-30T19:38:54.673Z,3.08
2023-03-30T19:41:23.086Z,3.35
2023-03-30T19:43:51.599Z,3.20
2023-03-30T19:46:22.150Z,3.50
2023-03-30T19:48:50.760Z,3.20
2023-03-30T19:51:19.732Z,3.45
2023-03-30T19:53:48.280Z,3.20
2023-03-30T19:56:16.763Z,3.67
2023-03-30T19:58:45.269Z,3.50
2023-03-30T20:01:13.678Z,3.90
2023-03-30T20:03:43.603Z,3.50
2023-03-30T20:06:12.597Z,3.45
2023-03-30T20:08:41.324Z,3.40
2023-03-30T20:11:10.040Z,3.67
2023-03-30T20:13:38.674Z,3.15
2023-03-30T20:16:07.354Z,3.33
2023-03-30T20:18:35.964Z,3.33
2023-03-30T20:21:06.937Z,3.33
2023-03-30T20:23:35.646Z,3.30
2023-03-30T20:26:04.863Z,3.40
2023-03-30T20:28:33.486Z,3.40
2023-03-30T20:31:02.049Z,3.50
2023-03-30T20:33:30.876Z,3.22
2023-03-30T20:35:59.786Z,3.75
2023-03-30T20:38:29.647Z,3.28
2023-03-30T20:40:58.657Z,3.25
2023-03-30T20:43:27.359Z,2.85
2023-03-30T20:46:02.411Z,3.10
2023-03-30T20:48:33.721Z,2.97
2023-03-30T20:51:03.808Z,2.92
2023-03-30T20:53:34.255Z,3.40
2023-03-30T20:56:03.064Z,3.13
2023-03-30T20:58:31.741Z,3.13
2023-03-30T21:01:01.705Z,3.10
2023-03-30T21:03:30.328Z,3.42
2023-03-30T21:06:03.180Z,2.92
2023-03-30T21:08:33.245Z,2.83
2023-03-30T21:11:01.940Z,3.35
2023-03-30T21:13:30.539Z,3.08
2023-03-30T21:15:59.498Z,3.22
2023-03-30T21:18:27.936Z,3.42
2023-03-30T21:20:56.967Z,2.90
2023-03-30T21:23:26.826Z,3.30
2023-03-30T21:25:58.228Z,3.30
2023-03-30T21:28:28.628Z,3.20
2023-03-30T21:30:57.854Z,3.58
2023-03-30T21:33:28.822Z,3.42
2023-03-30T21:35:58.657Z,2.83
2023-03-30T21:38:28.081Z,3.03
2023-03-30T21:41:02.141Z,3.35
2023-03-30T21:43:31.409Z,3.17
2023-03-30T21:46:01.026Z,3.22
2023-03-30T21:48:30.948Z,2.90
2023-03-30T21:51:00.152Z,2.90
2023-03-30T21:53:28.752Z,3.10
2023-03-30T21:55:57.694Z,3.00
2023-03-30T21:58:28.448Z,3.78
2023-03-30T22:01:08.975Z,3.20
2023-03-30T22:03:40.194Z,2.83
2023-03-30T22:06:10.897Z,3.10
2023-03-30T22:08:40.120Z,2.92
2023-03-30T22:11:09.943Z,3.17
2023-03-30T22:13:39.978Z,3.00
2023-03-30T22:16:12.718Z,2.63
2023-03-30T22:18:41.371Z,2.63
2023-03-30T22:21:12.411Z,2.85
2023-03-30T22:23:40.933Z,3.03
2023-03-30T22:26:09.359Z,3.17
2023-03-30T22:28:39.221Z,2.88
2023-03-30T22:31:08.435Z,3.08
2023-03-30T22:33:36.937Z,3.22
2023-03-30T22:36:07.717Z,2.90
2023-03-30T22:38:36.413Z,3.05
2023-03-30T22:41:07.593Z,3.05
2023-03-30T22:43:36.554Z,2.83
2023-03-30T22:46:06.930Z,2.80
2023-03-30T22:48:35.812Z,3.13
2023-03-30T22:51:04.530Z,2.90
2023-03-30T22:53:33.287Z,2.88
2023-03-30T22:56:01.858Z,2.95
2023-03-30T22:58:30.352Z,3.00
2023-03-30T23:01:03.641Z,2.90
2023-03-30T23:03:33.624Z,3.10
2023-03-30T23:06:02.128Z,3.00
2023-03-30T23:08:30.905Z,2.72
2023-03-30T23:11:04.964Z,2.65
2023-03-30T23:13:37.837Z,2.95
2023-03-30T23:16:08.380Z,3.38
2023-03-30T23:18:38.320Z,2.97
2023-03-30T23:21:07.570Z,2.38
2023-03-30T23:23:36.911Z,3.00
2023-03-30T23:26:09.029Z,3.25
2023-03-30T23:28:38.696Z,2.58
2023-03-30T23:31:10.819Z,2.72
2023-03-30T23:33:41.128Z,2.95
2023-03-30T23:36:10.448Z,2.63
2023-03-30T23:38:39.280Z,2.83
2023-03-30T23:41:07.902Z,2.80
2023-03-30T23:43:36.532Z,2.90
2023-03-30T23:46:05.593Z,3.08
2023-03-30T23:48:34.507Z,2.90
2023-03-30T23:51:04.905Z,2.80
2023-03-30T23:53:33.388Z,3.53
2023-03-30T23:56:06.117Z,2.80
2023-03-30T23:58:34.877Z,2.72
